メインページ
METAR-TAF:

METAR-TAF

空港 :

ジブラルタル国際空港

ジブラルタル, ジブラルタル

緯度: 36-09N, 経度: 005-21W, 海抜: 5m

現時点の気象観測

当レポートは24時間58分前の14:50(UTC)に作成
南東の風 11kt
気温 27°C
湿度 54%
気圧 1014 hPa
視程: 7000m
高度4000ftの雲はほとんどない
煙霧

METAR: LXGB 241450Z 14011KT 9999 7000E HZ FEW040 27/17 Q1014 NOSIG

時間: 17:48 (15:48 UTC)

予報

当レポートは2時間5分前の13:43(UTC)に作成
予報は25日の 15時(UTC)から 25日の 22時(UTC)まで有効
の風 16kt、最大26ktの突風を伴う
視程10km以上
高度3200ftの雲はほとんどない
25日の 16時(UTC)から 25日の 19時(UTC)まで徐々に
西の風 12kt

TAF: LXGB 251343Z 2515/2522 19016G26KT 9999 FEW032 530001 BECMG 2516/2519 26012KT 50////

4,000以上の空港の気象観測と天気予報(METAR報とTAF報)

利用可能な観測所は地図上に黄色い丸と赤い丸で示す。

丸の上にカーソルを重ねると観測所名を参照できる。

次にクリックすると気象観測と天気予報を参照できる。

マップの切り替え:黒色「×」印の緑ボタンをクリックして拡大、「-」印の緑ボタンをクリックして縮小、緑色の三角印をクリックして隣りの地図に切り替え


METAR-TAF: